Time;durP1;ratioP1;P1;durP2;ratioP2;P2;SDS_P1;SDS_P2;PMS_P1;PMS_P2;Temp;Humidity;BMP_temperature;BMP_pressure;BME280_temperature;BME280_humidity;BME280_pressure;Samples;Min_cycle;Max_cycle;Signal;HPM_P1;HPM_P2
2023/09/06 00:00:08;;;;;;;2.80;1.98;;;23.60;65.60;;;;;;5048725;28;20053;-84
2023/09/06 00:02:34;;;;;;;3.53;1.83;;;23.60;65.80;;;;;;5046608;28;20070;-83
2023/09/06 00:04:59;;;;;;;2.60;1.60;;;23.50;65.80;;;;;;5048877;28;20028;-84
2023/09/06 00:07:25;;;;;;;2.63;1.90;;;23.50;65.80;;;;;;5048910;28;20036;-83
2023/09/06 00:09:51;;;;;;;2.67;1.80;;;23.50;65.80;;;;;;5049658;28;20025;-84
2023/09/06 00:12:18;;;;;;;3.00;1.75;;;23.50;66.00;;;;;;5048165;28;20388;-83
2023/09/06 00:14:43;;;;;;;3.45;2.00;;;23.50;66.10;;;;;;5042667;28;20106;-84
2023/09/06 00:17:09;;;;;;;3.20;1.77;;;23.40;66.00;;;;;;5051284;28;20522;-84
2023/09/06 00:19:35;;;;;;;2.30;1.75;;;23.40;66.10;;;;;;5049076;28;20029;-83
2023/09/06 00:22:02;;;;;;;2.92;2.20;;;23.40;66.20;;;;;;5029451;28;20396;-83
2023/09/06 00:24:28;;;;;;;2.90;1.80;;;23.30;66.30;;;;;;5041751;28;20036;-84
2023/09/06 00:26:57;;;;;;;2.17;1.95;;;23.30;66.40;;;;;;5049079;28;20025;-83
2023/09/06 00:29:23;;;;;;;2.92;1.80;;;23.30;66.40;;;;;;5031120;28;20075;-83
2023/09/06 00:31:48;;;;;;;2.75;1.80;;;23.30;66.40;;;;;;5038267;28;20394;-83
2023/09/06 00:34:15;;;;;;;3.15;1.80;;;23.30;66.50;;;;;;5045911;28;20052;-83
2023/09/06 00:36:40;;;;;;;2.13;1.92;;;23.20;66.40;;;;;;5048673;28;20127;-83
2023/09/06 00:39:06;;;;;;;2.42;1.88;;;23.20;66.70;;;;;;5048122;28;20531;-83
2023/09/06 00:41:32;;;;;;;2.65;1.92;;;23.10;66.90;;;;;;5049252;28;20040;-83
2023/09/06 00:43:57;;;;;;;3.78;2.50;;;23.10;67.10;;;;;;5051732;28;20079;-82
2023/09/06 00:46:23;;;;;;;5.97;4.15;;;23.00;67.00;;;;;;5051612;28;20507;-83
2023/09/06 00:48:50;;;;;;;3.72;2.67;;;23.00;67.40;;;;;;5052306;28;20055;-83
2023/09/06 00:51:17;;;;;;;3.05;2.17;;;23.00;67.40;;;;;;5051857;28;20096;-83
2023/09/06 00:53:43;;;;;;;4.57;2.28;;;22.90;67.50;;;;;;5052124;28;20083;-83
2023/09/06 00:56:09;;;;;;;3.90;1.85;;;22.90;67.60;;;;;;5054425;28;20431;-83
2023/09/06 00:58:36;;;;;;;2.53;1.88;;;22.80;67.60;;;;;;5034185;28;20031;-83
2023/09/06 01:01:05;;;;;;;1.92;1.73;;;22.80;67.50;;;;;;5051982;28;20504;-83
2023/09/06 01:03:31;;;;;;;3.03;2.00;;;22.80;67.40;;;;;;5033412;28;20538;-83
2023/09/06 01:06:17;;;;;;;2.60;1.75;;;22.80;67.40;;;;;;5050549;28;20045;-83
2023/09/06 01:08:49;;;;;;;2.20;1.70;;;22.80;67.40;;;;;;5042075;28;20039;-83
2023/09/06 01:11:20;;;;;;;2.58;1.75;;;22.80;67.40;;;;;;5045677;28;20052;-83
2023/09/06 01:13:48;;;;;;;2.60;1.98;;;22.80;67.30;;;;;;5051479;28;20647;-83
2023/09/06 01:16:20;;;;;;;4.13;2.00;;;22.70;67.40;;;;;;5050721;28;20488;-83
2023/09/06 01:19:32;;;;;;;2.72;1.90;;;22.70;67.50;;;;;;5057603;22;20037;-84
2023/09/06 01:22:08;;;;;;;2.58;1.80;;;22.70;67.40;;;;;;5049995;28;20037;-86
2023/09/06 01:24:35;;;;;;;3.05;1.90;;;22.70;67.50;;;;;;5041717;28;20017;-86
2023/09/06 01:27:01;;;;;;;3.65;2.58;;;22.60;67.50;;;;;;5055747;28;20029;-86
2023/09/06 01:29:29;;;;;;;3.33;2.67;;;22.60;67.60;;;;;;5039077;28;20096;-86
2023/09/06 01:31:54;;;;;;;2.22;2.00;;;22.60;67.60;;;;;;5043430;28;20056;-86
2023/09/06 01:34:20;;;;;;;2.65;1.73;;;22.50;67.60;;;;;;5047306;28;20021;-87
2023/09/06 01:36:45;;;;;;;4.25;1.77;;;22.50;67.50;;;;;;5039069;28;20059;-86
2023/09/06 01:39:11;;;;;;;2.88;1.92;;;22.50;67.70;;;;;;5038676;28;20116;-87
2023/09/06 01:41:37;;;;;;;4.22;1.77;;;22.50;67.70;;;;;;5041969;28;20021;-87
2023/09/06 01:44:02;;;;;;;3.03;2.00;;;22.50;67.60;;;;;;5055206;28;20720;-86
2023/09/06 01:46:28;;;;;;;2.42;1.70;;;22.50;67.80;;;;;;5047085;28;20032;-86
2023/09/06 01:48:53;;;;;;;2.65;2.00;;;22.40;67.80;;;;;;5033804;28;20158;-87
2023/09/06 01:51:19;;;;;;;2.45;1.92;;;22.40;67.90;;;;;;5036518;28;20407;-88
2023/09/06 01:53:45;;;;;;;3.40;1.95;;;22.30;68.00;;;;;;5038065;28;20029;-87
2023/09/06 01:56:10;;;;;;;2.92;2.10;;;22.30;68.20;;;;;;5040739;28;20395;-86
2023/09/06 01:58:37;;;;;;;2.80;1.90;;;22.20;68.30;;;;;;5045941;28;20025;-86
2023/09/06 02:01:07;;;;;;;2.63;1.80;;;22.20;68.40;;;;;;5038977;28;20048;-86
2023/09/06 02:03:33;;;;;;;4.20;2.08;;;22.20;68.30;;;;;;5034785;28;20027;-87
2023/09/06 02:06:01;;;;;;;1.67;1.52;;;22.20;68.10;;;;;;5051252;28;20107;-86
2023/09/06 02:08:26;;;;;;;3.17;2.40;;;22.30;68.10;;;;;;5037805;28;20044;-87
2023/09/06 02:10:52;;;;;;;5.50;3.88;;;22.20;68.10;;;;;;5041554;28;20037;-87
2023/09/06 02:13:17;;;;;;;4.20;2.75;;;22.20;68.10;;;;;;5037647;28;20032;-88
2023/09/06 02:15:43;;;;;;;4.78;3.30;;;22.20;68.20;;;;;;5051433;28;20029;-86
2023/09/06 02:18:10;;;;;;;2.80;2.03;;;22.20;68.20;;;;;;5051487;28;20061;-87
2023/09/06 02:20:39;;;;;;;2.17;1.88;;;22.20;68.20;;;;;;5038828;28;20025;-86
2023/09/06 02:23:05;;;;;;;4.72;2.00;;;22.10;68.30;;;;;;5033506;28;20369;-85
2023/09/06 02:25:32;;;;;;;2.90;1.95;;;22.10;68.40;;;;;;5029324;28;20048;-85
2023/09/06 02:28:03;;;;;;;3.15;1.88;;;22.10;68.60;;;;;;5038031;28;20016;-84
2023/09/06 02:30:29;;;;;;;2.10;1.50;;;22.00;68.60;;;;;;5053739;28;20112;-85
2023/09/06 02:32:55;;;;;;;2.22;1.70;;;22.00;68.60;;;;;;5042192;28;20479;-84
2023/09/06 02:35:21;;;;;;;2.40;1.90;;;22.00;68.70;;;;;;5034195;28;20037;-84
2023/09/06 02:37:47;;;;;;;3.45;1.98;;;21.90;68.80;;;;;;5041361;28;20128;-87
2023/09/06 02:40:14;;;;;;;3.95;1.90;;;21.90;68.80;;;;;;5034956;28;20033;-87
2023/09/06 02:42:40;;;;;;;3.58;1.98;;;21.90;68.80;;;;;;5034485;28;20017;-87
2023/09/06 02:45:09;;;;;;;2.58;1.90;;;21.90;68.80;;;;;;5034669;28;20384;-87
2023/09/06 02:47:48;;;;;;;2.53;1.90;;;21.90;68.70;;;;;;5031115;28;20162;-86
2023/09/06 02:50:14;;;;;;;2.20;1.60;;;21.90;68.80;;;;;;5032837;28;20025;-87
2023/09/06 02:52:44;;;;;;;2.65;1.70;;;21.80;68.70;;;;;;5040392;28;20021;-88
2023/09/06 02:55:13;;;;;;;2.00;1.80;;;21.80;68.80;;;;;;5034183;28;20024;-88
2023/09/06 02:57:41;;;;;;;2.25;1.90;;;21.80;68.90;;;;;;5033997;28;20021;-87
2023/09/06 03:00:24;;;;;;;3.90;1.90;;;21.80;68.80;;;;;;5025280;28;20021;-86
2023/09/06 03:02:52;;;;;;;2.47;2.00;;;21.80;68.80;;;;;;5050701;28;20025;-86
2023/09/06 03:05:17;;;;;;;2.45;1.83;;;21.80;68.90;;;;;;5046247;28;20017;-87
2023/09/06 03:07:46;;;;;;;3.20;2.00;;;21.80;68.90;;;;;;5033984;28;20021;-87
2023/09/06 03:10:11;;;;;;;3.47;2.30;;;21.80;68.90;;;;;;5034337;28;20127;-87
2023/09/06 03:12:41;;;;;;;2.33;1.80;;;21.80;69.00;;;;;;5051069;28;20781;-88
2023/09/06 03:15:08;;;;;;;3.17;2.00;;;21.70;69.00;;;;;;5032877;28;20029;-87
2023/09/06 03:17:36;;;;;;;2.38;1.98;;;21.70;69.10;;;;;;5050710;28;20577;-87
2023/09/06 03:20:18;;;;;;;3.30;2.17;;;21.70;69.10;;;;;;5052414;28;20112;-87
2023/09/06 03:22:47;;;;;;;2.22;1.98;;;21.70;69.10;;;;;;5036854;28;20102;-87
2023/09/06 03:25:14;;;;;;;2.72;2.10;;;21.60;69.20;;;;;;5037017;28;20099;-86
2023/09/06 03:27:43;;;;;;;4.15;2.20;;;21.60;69.50;;;;;;5035066;28;20025;-86
2023/09/06 03:30:10;;;;;;;9.77;4.13;;;21.50;69.50;;;;;;5045809;28;20103;-85
2023/09/06 03:32:35;;;;;;;6.82;4.63;;;21.50;69.80;;;;;;5035640;28;20028;-85
2023/09/06 03:35:04;;;;;;;4.25;3.22;;;21.40;70.50;;;;;;5033806;28;20456;-84
2023/09/06 03:37:30;;;;;;;3.25;2.42;;;21.40;70.10;;;;;;5033643;28;20116;-85
2023/09/06 03:39:56;;;;;;;2.63;2.28;;;21.30;70.30;;;;;;5032790;28;20021;-85
2023/09/06 03:42:23;;;;;;;2.67;2.05;;;21.40;70.40;;;;;;5033019;28;20032;-85
2023/09/06 03:44:49;;;;;;;2.95;1.92;;;21.30;70.30;;;;;;5024949;28;20028;-85
2023/09/06 03:47:16;;;;;;;2.95;2.17;;;21.30;70.20;;;;;;5031405;28;20028;-86
2023/09/06 03:49:43;;;;;;;2.75;1.92;;;21.40;70.20;;;;;;5041552;28;20595;-86
2023/09/06 03:52:10;;;;;;;2.53;1.90;;;21.30;70.20;;;;;;5039157;28;20028;-86
2023/09/06 03:54:36;;;;;;;3.15;1.85;;;21.30;70.20;;;;;;5037519;28;20028;-87
2023/09/06 03:57:02;;;;;;;4.13;2.10;;;21.30;70.20;;;;;;5044337;28;20021;-85
2023/09/06 03:59:28;;;;;;;2.28;1.90;;;21.30;70.20;;;;;;5048066;28;20029;-84
2023/09/06 04:01:55;;;;;;;2.28;2.00;;;21.20;70.30;;;;;;5049757;28;20243;-85
2023/09/06 04:04:22;;;;;;;2.33;2.10;;;21.30;70.50;;;;;;5042225;28;20079;-85
2023/09/06 04:06:47;;;;;;;2.33;1.88;;;21.20;70.60;;;;;;5052633;28;20017;-85
2023/09/06 04:09:13;;;;;;;2.75;1.83;;;21.20;70.70;;;;;;5035757;28;20017;-85
2023/09/06 04:11:42;;;;;;;2.28;1.88;;;21.20;70.70;;;;;;5035734;28;20036;-85
2023/09/06 04:14:08;;;;;;;2.92;2.10;;;21.20;70.70;;;;;;5035256;28;20116;-87
2023/09/06 04:16:35;;;;;;;3.40;1.95;;;21.10;70.80;;;;;;5036592;28;20052;-88
2023/09/06 04:19:01;;;;;;;3.00;1.95;;;21.10;70.80;;;;;;5059563;28;20036;-87
2023/09/06 04:21:26;;;;;;;2.75;2.10;;;21.10;70.80;;;;;;5036752;28;20561;-87
2023/09/06 04:23:52;;;;;;;2.40;2.08;;;21.00;70.90;;;;;;5041899;28;20033;-88
2023/09/06 04:26:20;;;;;;;2.38;1.83;;;21.00;70.90;;;;;;5036504;28;20013;-88
2023/09/06 04:28:45;;;;;;;2.92;1.83;;;21.00;71.00;;;;;;5039020;28;20415;-88
2023/09/06 04:31:11;;;;;;;2.63;2.10;;;21.00;71.00;;;;;;5035334;28;20025;-88
2023/09/06 04:33:36;;;;;;;2.80;2.10;;;21.00;71.00;;;;;;5039531;28;20033;-87
2023/09/06 04:36:04;;;;;;;3.03;1.95;;;21.00;71.10;;;;;;5037187;28;20537;-86
2023/09/06 04:38:31;;;;;;;2.40;1.90;;;21.00;71.20;;;;;;5038332;28;20048;-86
2023/09/06 04:40:58;;;;;;;2.97;2.20;;;20.90;71.30;;;;;;5047177;28;20444;-86
2023/09/06 04:43:25;;;;;;;2.53;1.80;;;20.90;71.50;;;;;;5038708;28;20025;-86
2023/09/06 04:45:51;;;;;;;2.40;2.08;;;20.90;71.50;;;;;;5038917;28;20056;-86
2023/09/06 04:48:17;;;;;;;2.20;2.00;;;20.80;71.50;;;;;;5037300;28;20053;-87
2023/09/06 04:50:44;;;;;;;2.00;1.80;;;20.90;71.60;;;;;;5036706;28;20028;-87
2023/09/06 04:53:11;;;;;;;3.90;2.20;;;20.80;71.60;;;;;;5036767;28;20108;-86
2023/09/06 04:55:40;;;;;;;2.60;2.10;;;20.80;71.60;;;;;;5037352;28;20024;-86
2023/09/06 04:58:08;;;;;;;2.38;2.13;;;20.80;71.60;;;;;;5041631;28;20021;-86
2023/09/06 05:00:37;;;;;;;2.20;1.90;;;20.70;71.70;;;;;;5036110;28;20025;-87
2023/09/06 05:03:08;;;;;;;3.22;2.30;;;20.80;71.80;;;;;;5036535;28;20032;-87
2023/09/06 05:05:35;;;;;;;3.17;2.20;;;20.70;71.90;;;;;;5036157;28;20082;-86
2023/09/06 05:08:01;;;;;;;3.28;2.55;;;20.70;72.10;;;;;;5035949;28;20109;-87
2023/09/06 05:10:26;;;;;;;2.33;2.03;;;20.70;72.10;;;;;;5035818;28;20423;-87
2023/09/06 05:12:52;;;;;;;3.72;2.53;;;20.70;72.20;;;;;;5028510;28;20028;-87
2023/09/06 05:15:18;;;;;;;2.45;2.10;;;20.70;72.30;;;;;;5044952;28;20029;-84
2023/09/06 05:17:43;;;;;;;3.30;2.58;;;20.70;72.40;;;;;;5031533;28;20067;-85
2023/09/06 05:20:35;;;;;;;3.00;2.50;;;20.60;72.60;;;;;;5046947;28;20562;-86
2023/09/06 05:23:03;;;;;;;5.00;2.30;;;20.60;72.70;;;;;;5037886;28;20476;-87
2023/09/06 05:25:29;;;;;;;3.40;2.67;;;20.60;72.80;;;;;;5036767;28;20785;-87
2023/09/06 05:27:58;;;;;;;4.50;2.63;;;20.60;73.00;;;;;;5036950;28;20017;-86
2023/09/06 05:30:25;;;;;;;5.38;3.00;;;20.50;73.00;;;;;;5037079;28;20029;-85
2023/09/06 05:32:50;;;;;;;3.58;2.92;;;20.50;73.10;;;;;;5035079;28;20133;-85
2023/09/06 05:35:16;;;;;;;3.22;2.30;;;20.50;73.20;;;;;;5048116;28;20480;-87
2023/09/06 05:37:42;;;;;;;4.45;2.83;;;20.60;73.30;;;;;;5050463;28;20464;-84
2023/09/06 05:40:08;;;;;;;2.65;2.40;;;20.50;73.30;;;;;;5034096;28;20090;-84
2023/09/06 05:42:35;;;;;;;3.70;2.63;;;20.60;73.40;;;;;;5034767;28;20028;-87
2023/09/06 05:45:00;;;;;;;4.20;2.90;;;20.60;73.30;;;;;;5029622;28;20392;-85
2023/09/06 05:47:26;;;;;;;4.75;2.80;;;20.60;73.40;;;;;;5034703;28;20017;-83
2023/09/06 05:49:55;;;;;;;3.33;2.60;;;20.60;73.40;;;;;;5039810;28;20017;-83
2023/09/06 05:52:22;;;;;;;4.20;2.95;;;20.60;73.70;;;;;;5035075;28;20047;-83
2023/09/06 05:54:48;;;;;;;3.88;2.80;;;20.60;73.70;;;;;;5049425;28;20264;-83
2023/09/06 05:57:14;;;;;;;3.17;2.75;;;21.20;73.60;;;;;;5039711;28;20029;-84
2023/09/06 05:59:39;;;;;;;4.00;2.80;;;22.60;71.00;;;;;;5036409;28;20025;-82
2023/09/06 06:02:05;;;;;;;4.35;2.60;;;24.10;67.30;;;;;;5036172;28;20455;-83
2023/09/06 06:04:31;;;;;;;3.65;2.50;;;25.30;64.10;;;;;;5038146;28;20020;-83
2023/09/06 06:06:57;;;;;;;4.75;2.80;;;26.30;61.40;;;;;;5055937;28;20024;-83
2023/09/06 06:09:24;;;;;;;3.90;2.78;;;27.10;59.40;;;;;;5030517;28;20537;-84
2023/09/06 06:11:53;;;;;;;3.70;2.60;;;28.00;57.80;;;;;;5050582;28;20372;-87
2023/09/06 06:14:19;;;;;;;4.10;2.78;;;28.80;56.20;;;;;;5042158;28;20021;-87
2023/09/06 06:16:44;;;;;;;4.93;2.92;;;29.40;54.60;;;;;;5034933;28;20021;-86
2023/09/06 06:19:10;;;;;;;3.05;2.40;;;29.90;53.60;;;;;;5034610;28;20071;-87
2023/09/06 06:21:37;;;;;;;5.60;2.88;;;30.60;52.80;;;;;;5035783;28;20128;-86
2023/09/06 06:24:04;;;;;;;3.92;2.75;;;31.00;51.30;;;;;;5036258;28;20053;-88
2023/09/06 06:26:30;;;;;;;4.03;2.10;;;31.40;50.70;;;;;;5034185;28;20048;-88
2023/09/06 06:28:55;;;;;;;5.47;3.28;;;31.80;50.20;;;;;;5034006;28;20060;-88
2023/09/06 06:31:21;;;;;;;5.63;3.03;;;31.80;48.90;;;;;;5045986;28;20028;-85
2023/09/06 06:33:48;;;;;;;4.88;2.53;;;31.90;48.50;;;;;;5034262;28;20029;-86
2023/09/06 06:36:13;;;;;;;3.53;2.70;;;32.10;48.10;;;;;;5030579;28;20444;-87
2023/09/06 06:38:40;;;;;;;3.42;2.55;;;32.50;47.60;;;;;;5036861;28;20064;-86
2023/09/06 06:41:20;;;;;;;4.45;2.70;;;32.70;47.10;;;;;;5030369;28;20116;-86
2023/09/06 06:43:47;;;;;;;4.73;2.77;;;33.30;46.80;;;;;;5030793;28;20529;-87
2023/09/06 06:46:32;;;;;;;5.78;2.90;;;33.30;46.00;;;;;;5032650;28;20291;-87
2023/09/06 06:48:59;;;;;;;3.75;2.30;;;33.40;45.60;;;;;;5033372;28;20475;-87
2023/09/06 06:51:25;;;;;;;2.85;1.95;;;33.80;45.80;;;;;;5033781;28;20028;-86
2023/09/06 06:53:51;;;;;;;4.38;2.63;;;34.30;45.40;;;;;;5032898;28;20040;-85
2023/09/06 06:56:21;;;;;;;5.13;2.75;;;34.50;44.50;;;;;;5031819;28;20044;-88
2023/09/06 06:58:50;;;;;;;4.43;2.10;;;34.70;44.10;;;;;;5032474;28;20028;-87
2023/09/06 07:01:16;;;;;;;3.15;2.08;;;35.00;43.90;;;;;;5029408;28;20431;-87
2023/09/06 07:03:42;;;;;;;2.80;2.00;;;35.30;43.60;;;;;;5031050;28;20031;-86
2023/09/06 07:06:08;;;;;;;2.58;1.80;;;35.60;43.10;;;;;;5038941;28;20107;-85
2023/09/06 07:08:35;;;;;;;3.25;2.00;;;35.80;42.60;;;;;;5033545;28;20024;-86
2023/09/06 07:11:03;;;;;;;3.42;1.75;;;35.90;42.30;;;;;;5029350;28;20028;-87
2023/09/06 07:13:29;;;;;;;2.50;2.15;;;36.20;41.90;;;;;;5028212;28;20025;-86
2023/09/06 07:15:54;;;;;;;3.85;2.05;;;36.10;41.70;;;;;;5036847;28;20098;-87
2023/09/06 07:18:21;;;;;;;2.42;1.88;;;36.30;41.60;;;;;;5035523;28;20070;-87
2023/09/06 07:20:47;;;;;;;2.33;2.00;;;36.60;41.30;;;;;;5034626;28;20021;-88
2023/09/06 07:23:13;;;;;;;3.20;2.35;;;36.20;40.90;;;;;;5036939;28;20079;-87
2023/09/06 07:25:39;;;;;;;3.50;2.22;;;36.10;41.00;;;;;;5045720;28;20376;-87
2023/09/06 07:28:05;;;;;;;2.03;1.73;;;36.20;41.00;;;;;;5053488;28;20032;-87
2023/09/06 07:30:32;;;;;;;2.58;1.90;;;36.40;40.70;;;;;;5046533;28;20017;-88
2023/09/06 07:32:58;;;;;;;4.07;2.13;;;36.30;40.60;;;;;;5029663;28;20053;-88
2023/09/06 07:35:23;;;;;;;2.63;2.00;;;36.70;40.30;;;;;;5039408;28;20044;-87
2023/09/06 07:37:49;;;;;;;3.70;2.20;;;37.10;40.00;;;;;;5035446;28;20124;-88
2023/09/06 07:40:14;;;;;;;3.75;2.00;;;37.10;39.80;;;;;;5031998;28;20091;-87
2023/09/06 07:42:40;;;;;;;6.18;2.33;;;36.80;39.70;;;;;;5033538;28;20013;-87
2023/09/06 07:45:07;;;;;;;4.15;2.22;;;36.40;39.60;;;;;;5031546;28;20499;-87
2023/09/06 07:47:33;;;;;;;4.25;2.00;;;35.70;39.90;;;;;;5035653;28;20486;-85
2023/09/06 07:49:59;;;;;;;3.00;2.10;;;35.50;40.50;;;;;;5032471;28;20032;-86
2023/09/06 07:52:25;;;;;;;2.50;2.17;;;35.10;41.00;;;;;;5049914;28;20021;-86
2023/09/06 07:54:50;;;;;;;2.67;2.00;;;34.70;41.30;;;;;;5025326;28;20053;-87
2023/09/06 07:57:16;;;;;;;3.42;2.10;;;34.20;41.90;;;;;;5028476;28;20021;-87
2023/09/06 07:59:41;;;;;;;3.38;2.20;;;33.80;42.50;;;;;;5032012;28;20055;-86
2023/09/06 08:02:08;;;;;;;3.42;2.33;;;32.90;43.50;;;;;;5033369;28;20029;-85
2023/09/06 08:04:33;;;;;;;4.65;2.20;;;31.70;45.30;;;;;;5036236;28;20021;-86
2023/09/06 08:06:59;;;;;;;4.88;2.53;;;30.80;47.00;;;;;;5031994;28;20023;-83
2023/09/06 08:09:25;;;;;;;3.63;2.30;;;30.20;48.10;;;;;;5032837;28;20032;-87
2023/09/06 08:11:51;;;;;;;6.20;2.30;;;29.60;49.20;;;;;;5034763;28;20025;-86
2023/09/06 08:14:16;;;;;;;3.22;2.30;;;29.20;50.10;;;;;;5029716;28;20388;-86
2023/09/06 08:16:43;;;;;;;2.92;1.90;;;28.70;50.70;;;;;;5048993;28;20104;-86
2023/09/06 08:19:08;;;;;;;5.53;2.35;;;28.50;51.50;;;;;;5030594;28;20033;-86
2023/09/06 08:21:34;;;;;;;4.38;2.40;;;28.40;52.00;;;;;;5042574;28;20017;-84
2023/09/06 08:24:02;;;;;;;4.97;2.40;;;28.10;52.80;;;;;;5035664;28;20035;-84
2023/09/06 08:26:28;;;;;;;4.07;2.55;;;27.80;53.50;;;;;;5032097;28;20547;-86
2023/09/06 08:28:53;;;;;;;3.22;2.20;;;27.50;54.90;;;;;;5031668;28;20021;-85
2023/09/06 08:31:19;;;;;;;3.50;2.40;;;27.30;54.90;;;;;;5049316;28;20180;-86
2023/09/06 08:33:45;;;;;;;2.90;2.10;;;27.10;55.30;;;;;;5028061;28;20123;-86
2023/09/06 08:36:11;;;;;;;4.40;2.30;;;26.90;55.60;;;;;;5032472;28;20060;-85
2023/09/06 08:38:39;;;;;;;5.90;2.40;;;26.80;55.80;;;;;;5033115;28;20063;-86
2023/09/06 08:41:07;;;;;;;3.28;2.40;;;26.80;56.10;;;;;;5032158;28;20047;-86
2023/09/06 08:43:39;;;;;;;5.10;2.30;;;26.80;56.30;;;;;;5031924;28;20596;-85
2023/09/06 08:46:12;;;;;;;6.55;2.47;;;26.70;56.80;;;;;;5031651;28;20047;-87
2023/09/06 08:48:39;;;;;;;5.05;2.00;;;26.70;56.60;;;;;;5037456;28;20491;-87
2023/09/06 08:51:06;;;;;;;5.53;2.03;;;26.70;56.70;;;;;;5039070;28;20025;-87
2023/09/06 08:53:34;;;;;;;5.10;2.50;;;26.80;57.00;;;;;;5029896;28;20030;-86
2023/09/06 08:56:01;;;;;;;4.90;2.20;;;26.80;57.40;;;;;;5048538;28;20028;-86
2023/09/06 08:58:28;;;;;;;4.15;2.50;;;26.80;57.60;;;;;;5047355;28;20025;-86
2023/09/06 09:00:55;;;;;;;4.20;2.10;;;26.80;57.40;;;;;;5027350;28;20112;-86
2023/09/06 09:03:21;;;;;;;4.50;2.40;;;26.70;57.50;;;;;;5034798;28;20782;-87
2023/09/06 09:05:46;;;;;;;2.47;2.20;;;26.70;57.50;;;;;;5053738;28;20063;-87
2023/09/06 09:08:12;;;;;;;3.63;2.28;;;26.70;57.20;;;;;;5045380;28;20021;-87
2023/09/06 09:10:39;;;;;;;3.03;2.20;;;26.70;57.20;;;;;;5052958;28;20226;-85
2023/09/06 09:13:09;;;;;;;7.32;3.00;;;26.80;57.50;;;;;;5034501;28;20029;-86
2023/09/06 09:15:35;;;;;;;4.72;2.30;;;26.80;57.20;;;;;;5041868;28;20025;-86
2023/09/06 09:18:11;;;;;;;3.28;2.30;;;26.90;57.10;;;;;;5035557;28;20049;-87
2023/09/06 09:20:41;;;;;;;3.05;2.55;;;27.00;57.10;;;;;;5024244;28;20043;-87
2023/09/06 09:23:14;;;;;;;6.88;2.40;;;26.90;57.40;;;;;;5043231;28;20427;-89
2023/09/06 09:25:47;;;;;;;3.38;2.35;;;27.00;57.30;;;;;;5031640;28;20074;-85
2023/09/06 09:28:17;;;;;;;5.05;2.78;;;27.00;57.20;;;;;;5034827;28;20017;-87
2023/09/06 09:30:42;;;;;;;3.97;2.53;;;27.00;57.00;;;;;;5033927;28;20025;-86
2023/09/06 09:33:08;;;;;;;5.40;2.90;;;27.00;57.10;;;;;;5026496;28;20132;-86
2023/09/06 09:35:35;;;;;;;3.70;2.15;;;27.00;57.20;;;;;;5034619;28;20103;-87
2023/09/06 09:38:02;;;;;;;3.65;2.30;;;27.00;56.70;;;;;;5038496;28;20025;-86
2023/09/06 09:40:32;;;;;;;2.75;2.08;;;27.10;56.90;;;;;;5034113;28;20074;-87
2023/09/06 09:43:00;;;;;;;3.38;2.20;;;27.20;56.80;;;;;;5034116;28;20059;-85
2023/09/06 09:45:28;;;;;;;5.15;2.67;;;27.40;56.70;;;;;;5035612;28;20438;-87
2023/09/06 09:47:55;;;;;;;5.20;2.30;;;27.50;56.10;;;;;;5034747;28;20755;-86
2023/09/06 09:50:24;;;;;;;5.05;2.40;;;27.50;55.40;;;;;;5028169;28;20022;-87
2023/09/06 09:52:52;;;;;;;3.75;2.50;;;27.50;55.00;;;;;;5025971;28;20501;-87
2023/09/06 09:55:20;;;;;;;4.03;2.42;;;27.50;54.60;;;;;;5043346;28;20468;-87
2023/09/06 09:57:46;;;;;;;3.92;2.42;;;27.50;54.80;;;;;;5041285;28;20024;-86
2023/09/06 10:00:17;;;;;;;4.85;2.30;;;27.50;54.70;;;;;;5032845;28;20452;-87
2023/09/06 10:02:45;;;;;;;3.22;2.30;;;27.60;54.30;;;;;;5052124;28;20436;-85
2023/09/06 10:05:15;;;;;;;5.13;2.33;;;27.60;53.90;;;;;;5050850;28;20036;-86
2023/09/06 10:07:42;;;;;;;3.85;2.25;;;27.60;53.30;;;;;;5030647;28;20028;-84
2023/09/06 10:10:10;;;;;;;3.88;2.20;;;27.70;53.70;;;;;;5036550;28;20021;-85
2023/09/06 10:12:40;;;;;;;4.68;2.60;;;27.70;53.80;;;;;;5035059;28;20025;-86
2023/09/06 10:15:08;;;;;;;5.20;2.60;;;27.80;53.60;;;;;;5039801;28;20021;-85
2023/09/06 10:17:34;;;;;;;3.65;2.42;;;28.00;53.50;;;;;;5041067;28;20074;-86
2023/09/06 10:20:00;;;;;;;4.47;2.67;;;28.00;51.80;;;;;;5033692;28;20492;-85
2023/09/06 10:22:25;;;;;;;5.03;2.60;;;27.90;51.20;;;;;;5051507;28;20051;-86
2023/09/06 10:24:52;;;;;;;2.95;2.25;;;27.90;51.20;;;;;;5052040;28;20025;-86
2023/09/06 10:27:18;;;;;;;3.25;2.20;;;28.00;50.60;;;;;;5033068;28;20104;-86
2023/09/06 10:29:53;;;;;;;5.15;2.45;;;28.00;51.00;;;;;;5036260;28;20112;-86
2023/09/06 10:32:22;;;;;;;3.72;2.30;;;28.10;51.00;;;;;;5033835;28;20929;-86
2023/09/06 10:35:24;;;;;;;4.35;2.58;;;28.20;50.60;;;;;;5031896;28;20533;-88
2023/09/06 10:38:04;;;;;;;4.78;2.60;;;28.20;50.30;;;;;;5035444;28;20141;-87
2023/09/06 10:40:51;;;;;;;4.15;2.60;;;28.20;50.70;;;;;;5034144;28;20041;-85
2023/09/06 10:43:22;;;;;;;5.40;2.60;;;28.20;51.40;;;;;;5050314;28;20025;-86
2023/09/06 10:46:07;;;;;;;3.35;2.42;;;28.30;51.60;;;;;;5038364;28;20031;-87
2023/09/06 10:48:33;;;;;;;5.25;2.65;;;28.40;51.50;;;;;;5030627;28;20033;-86
2023/09/06 10:51:06;;;;;;;3.30;2.10;;;28.40;51.50;;;;;;5037863;28;20029;-86
2023/09/06 10:53:37;;;;;;;2.90;2.10;;;28.50;51.70;;;;;;5047160;28;20090;-88
2023/09/06 10:56:03;;;;;;;4.40;2.72;;;28.60;51.80;;;;;;5032890;28;20024;-88
2023/09/06 10:58:30;;;;;;;3.05;1.98;;;28.70;51.60;;;;;;5032745;28;20029;-86
2023/09/06 11:01:18;;;;;;;3.80;2.20;;;28.80;51.60;;;;;;5034162;28;20021;-86
2023/09/06 11:03:54;;;;;;;3.13;2.20;;;28.90;51.90;;;;;;5030427;28;20115;-89
2023/09/06 11:06:23;;;;;;;2.90;2.10;;;29.10;52.10;;;;;;5032651;28;20025;-88
2023/09/06 11:08:49;;;;;;;2.80;2.20;;;29.20;51.90;;;;;;5031685;28;20029;-88
2023/09/06 11:11:15;;;;;;;4.35;2.30;;;29.20;51.60;;;;;;5033051;28;20028;-87
2023/09/06 11:13:44;;;;;;;3.17;2.33;;;29.20;51.50;;;;;;5032488;28;20041;-87
2023/09/06 11:16:15;;;;;;;3.40;2.20;;;29.20;51.50;;;;;;5036653;28;20025;-87
2023/09/06 11:18:46;;;;;;;3.40;2.67;;;29.20;51.40;;;;;;5031516;28;20033;-88
2023/09/06 11:21:19;;;;;;;3.70;2.75;;;29.20;51.30;;;;;;5032199;28;20029;-87
2023/09/06 11:23:50;;;;;;;3.78;2.90;;;29.30;51.10;;;;;;5050587;28;20468;-88
2023/09/06 11:26:16;;;;;;;3.70;2.60;;;29.30;50.50;;;;;;5026307;28;20047;-87
2023/09/06 11:28:43;;;;;;;3.17;2.30;;;29.30;50.20;;;;;;5042976;28;20031;-88
2023/09/06 11:31:24;;;;;;;5.20;2.42;;;29.40;49.80;;;;;;5033744;28;20025;-86
2023/09/06 11:33:53;;;;;;;;;;;29.40;49.40;;;;;;5034695;28;20025;-87
2023/09/06 11:36:21;;;;;;;3.78;2.40;;;29.60;49.20;;;;;;5048961;28;20040;-88
2023/09/06 11:38:47;;;;;;;4.35;2.50;;;29.70;49.20;;;;;;5045752;28;20021;-87
2023/09/06 11:41:14;;;;;;;3.92;2.50;;;29.80;48.10;;;;;;5035721;28;20029;-87
2023/09/06 11:43:43;;;;;;;4.03;2.60;;;29.80;47.00;;;;;;5032088;28;20029;-87
2023/09/06 11:46:11;;;;;;;3.60;2.53;;;29.80;47.10;;;;;;5029941;28;20021;-87
2023/09/06 11:48:39;;;;;;;4.60;2.70;;;29.80;46.30;;;;;;5032535;28;20563;-88
2023/09/06 11:51:13;;;;;;;5.05;2.60;;;29.80;46.20;;;;;;5035184;28;20071;-87
2023/09/06 11:53:45;;;;;;;3.55;2.38;;;29.90;45.80;;;;;;5031803;28;20047;-87
2023/09/06 11:56:13;;;;;;;4.65;2.55;;;30.00;46.20;;;;;;5028512;28;20533;-89
2023/09/06 11:58:48;;;;;;;4.57;2.88;;;30.20;46.10;;;;;;5049538;28;20036;-85
2023/09/06 12:01:22;;;;;;;3.45;2.40;;;30.30;45.70;;;;;;5030925;28;20021;-88
2023/09/06 12:03:48;;;;;;;5.43;2.63;;;30.40;45.40;;;;;;5031866;28;20025;-86
2023/09/06 12:06:14;;;;;;;3.92;2.85;;;30.30;44.40;;;;;;5049673;28;20068;-87
2023/09/06 12:08:41;;;;;;;3.47;2.33;;;30.40;44.40;;;;;;5038429;28;20021;-87
2023/09/06 12:11:10;;;;;;;4.30;2.45;;;30.40;43.40;;;;;;5031931;28;20021;-87
2023/09/06 12:13:38;;;;;;;4.78;2.80;;;30.50;44.40;;;;;;5031768;28;20025;-88
2023/09/06 12:16:08;;;;;;;5.65;2.90;;;30.50;45.90;;;;;;5031030;28;20040;-88
2023/09/06 12:18:35;;;;;;;3.65;2.70;;;30.30;46.10;;;;;;5031595;28;20085;-88
2023/09/06 12:21:03;;;;;;;4.13;2.75;;;30.40;46.40;;;;;;5031451;28;20549;-86
2023/09/06 12:23:29;;;;;;;4.20;2.53;;;30.50;46.20;;;;;;5034879;28;20017;-86
2023/09/06 12:25:59;;;;;;;4.43;2.80;;;30.60;46.30;;;;;;5046216;28;20025;-88
2023/09/06 12:28:25;;;;;;;3.92;2.40;;;30.70;46.20;;;;;;5034402;28;20025;-86
2023/09/06 12:30:55;;;;;;;3.38;2.55;;;30.80;46.60;;;;;;5033838;28;20452;-87
2023/09/06 12:33:24;;;;;;;5.28;2.70;;;30.90;46.70;;;;;;5032539;28;20112;-86
2023/09/06 12:35:58;;;;;;;2.92;2.40;;;31.00;46.60;;;;;;5032019;28;20021;-85
2023/09/06 12:38:28;;;;;;;5.13;2.60;;;31.00;46.30;;;;;;5036896;28;20024;-86
2023/09/06 12:40:54;;;;;;;3.45;2.45;;;31.10;46.00;;;;;;5039637;28;20029;-85
2023/09/06 12:43:21;;;;;;;3.78;2.50;;;31.10;46.00;;;;;;5034754;28;20034;-85
2023/09/06 12:45:47;;;;;;;4.95;3.10;;;31.20;46.10;;;;;;5035456;28;20108;-86
2023/09/06 12:48:14;;;;;;;4.15;2.63;;;31.40;46.00;;;;;;5035081;28;20418;-87
2023/09/06 12:50:39;;;;;;;3.78;2.65;;;31.40;44.60;;;;;;5034931;28;20475;-88